Time;durP1;ratioP1;P1;durP2;ratioP2;P2;SDS_P1;SDS_P2;PMS_P1;PMS_P2;Temp;Humidity;BMP_temperature;BMP_pressure;BME280_temperature;BME280_humidity;BME280_pressure;Samples;Min_cycle;Max_cycle;Signal;HPM_P1;HPM_P2
2023/12/07 00:00:50;;;;;;;38.85;20.85;;;2.00;99.90;;;;;;4999519;28;20034;-82
2023/12/07 00:03:16;;;;;;;36.88;20.75;;;2.10;99.90;;;;;;4998001;28;20038;-81
2023/12/07 00:05:41;;;;;;;37.58;19.33;;;2.10;99.90;;;;;;4990206;28;20039;-84
2023/12/07 00:08:10;;;;;;;40.35;21.27;;;2.10;99.90;;;;;;4981960;28;20038;-84
2023/12/07 00:10:36;;;;;;;47.97;25.92;;;2.10;99.90;;;;;;5007722;28;20784;-81
2023/12/07 00:13:02;;;;;;;33.78;17.15;;;2.10;99.90;;;;;;4970858;28;20052;-83
2023/12/07 00:15:27;;;;;;;64.57;31.25;;;2.10;99.90;;;;;;5005987;28;20042;-81
2023/12/07 00:17:53;;;;;;;39.63;18.83;;;2.10;99.90;;;;;;5002918;28;20059;-82
2023/12/07 00:20:18;;;;;;;40.42;21.85;;;2.00;99.90;;;;;;4991959;28;20113;-84
2023/12/07 00:22:44;;;;;;;65.60;30.00;;;2.00;99.90;;;;;;5006091;28;20053;-84
2023/12/07 00:25:09;;;;;;;68.30;34.17;;;2.20;99.90;;;;;;5002554;28;20109;-80
2023/12/07 00:27:35;;;;;;;46.40;21.85;;;2.10;99.90;;;;;;4986642;28;20035;-82
2023/12/07 00:30:00;;;;;;;43.95;22.08;;;2.10;99.90;;;;;;4984267;28;20034;-84
2023/12/07 00:32:27;;;;;;;57.50;30.25;;;2.10;99.90;;;;;;4983448;28;20129;-83
2023/12/07 00:34:53;;;;;;;58.38;27.95;;;2.10;99.90;;;;;;5000240;28;20389;-84
2023/12/07 00:37:18;;;;;;;52.45;27.30;;;2.20;99.90;;;;;;5003189;28;20037;-85
2023/12/07 00:39:44;;;;;;;44.72;21.27;;;2.20;99.90;;;;;;5000183;28;20504;-82
2023/12/07 00:42:09;;;;;;;53.97;26.75;;;2.20;99.90;;;;;;5006484;28;20037;-80
2023/12/07 00:44:39;;;;;;;54.05;30.45;;;2.30;99.90;;;;;;4987025;28;20034;-81
2023/12/07 00:47:05;;;;;;;72.22;33.00;;;2.30;99.90;;;;;;4989346;28;20042;-83
2023/12/07 00:49:30;;;;;;;63.92;31.65;;;2.30;99.90;;;;;;4999035;28;20174;-84
2023/12/07 00:51:56;;;;;;;52.10;25.23;;;2.30;99.90;;;;;;5000066;28;20029;-84
2023/12/07 00:54:21;;;;;;;60.30;30.45;;;2.20;99.90;;;;;;5001101;28;20030;-84
2023/12/07 00:56:47;;;;;;;60.95;32.00;;;2.20;99.90;;;;;;5001760;28;20037;-83
2023/12/07 00:59:12;;;;;;;59.05;28.70;;;2.20;99.90;;;;;;4992046;28;20041;-84
2023/12/07 01:01:38;;;;;;;68.60;33.92;;;2.20;99.90;;;;;;4999246;28;20038;-83
2023/12/07 01:04:05;;;;;;;64.53;33.17;;;2.30;99.90;;;;;;4999433;28;20054;-80
2023/12/07 01:06:31;;;;;;;55.55;28.00;;;2.20;99.90;;;;;;4998859;28;20124;-83
2023/12/07 01:08:57;;;;;;;47.33;24.48;;;2.20;99.90;;;;;;4998322;28;20125;-84
2023/12/07 01:11:22;;;;;;;63.80;30.25;;;2.20;99.90;;;;;;4983429;28;20149;-84
2023/12/07 01:13:48;;;;;;;51.38;24.77;;;2.20;99.90;;;;;;4986873;28;20133;-80
2023/12/07 01:16:13;;;;;;;49.47;24.08;;;2.10;99.90;;;;;;4988954;28;20404;-82
2023/12/07 01:18:39;;;;;;;71.85;32.10;;;2.20;99.90;;;;;;5016310;28;20026;-84
2023/12/07 01:21:04;;;;;;;57.30;29.30;;;2.30;99.90;;;;;;4999646;28;20089;-82
2023/12/07 01:23:30;;;;;;;67.55;32.58;;;2.20;99.90;;;;;;4999580;28;20026;-85
2023/12/07 01:25:55;;;;;;;70.07;33.08;;;2.20;99.90;;;;;;4997856;28;20069;-76
2023/12/07 01:28:21;;;;;;;51.22;26.35;;;2.10;99.90;;;;;;4981234;28;20030;-76
2023/12/07 01:30:46;;;;;;;55.53;26.83;;;2.20;99.90;;;;;;4985689;28;20027;-78
2023/12/07 01:33:12;;;;;;;60.42;29.63;;;2.20;99.90;;;;;;4968221;28;20030;-76
2023/12/07 01:35:38;;;;;;;54.70;25.33;;;2.30;99.90;;;;;;5002105;28;20049;-76
2023/12/07 01:38:04;;;;;;;68.10;34.05;;;2.30;99.90;;;;;;4983731;28;20034;-76
2023/12/07 01:40:29;;;;;;;60.22;27.20;;;2.30;99.90;;;;;;4998799;28;20062;-76
2023/12/07 01:42:55;;;;;;;52.15;24.88;;;2.30;99.90;;;;;;4994158;28;20123;-76
2023/12/07 01:45:20;;;;;;;48.85;25.10;;;2.30;99.90;;;;;;4994917;28;20497;-76
2023/12/07 01:47:48;;;;;;;57.22;29.33;;;2.30;99.90;;;;;;4982526;28;20057;-76
2023/12/07 01:50:15;;;;;;;68.20;29.63;;;2.20;99.90;;;;;;4999759;28;20042;-77
2023/12/07 01:52:44;;;;;;;80.45;35.20;;;2.20;99.90;;;;;;4996037;28;20054;-76
2023/12/07 01:55:10;;;;;;;73.93;34.45;;;2.10;99.90;;;;;;5011215;28;20049;-76
2023/12/07 01:57:35;;;;;;;68.30;32.78;;;2.10;99.90;;;;;;4985174;28;20035;-76
2023/12/07 02:00:01;;;;;;;57.38;28.35;;;2.10;99.90;;;;;;4954864;28;20046;-77
2023/12/07 02:02:27;;;;;;;66.85;31.98;;;2.20;99.90;;;;;;4994258;28;20073;-76
2023/12/07 02:04:52;;;;;;;72.72;35.50;;;2.10;99.90;;;;;;4959117;28;1091506;-76
2023/12/07 02:07:18;;;;;;;62.25;29.13;;;2.20;99.90;;;;;;4981680;28;20057;-76
2023/12/07 02:09:44;;;;;;;66.35;30.83;;;2.20;99.90;;;;;;4985468;28;20034;-76
2023/12/07 02:12:09;;;;;;;68.32;33.50;;;2.20;99.90;;;;;;4999390;28;20026;-76
2023/12/07 02:14:35;;;;;;;68.65;33.35;;;2.10;99.90;;;;;;4994114;28;20034;-77
2023/12/07 02:17:06;;;;;;;50.80;26.33;;;2.10;99.90;;;;;;4971592;28;20042;-76
2023/12/07 02:20:00;;;;;;;89.28;36.22;;;2.20;99.90;;;;;;4961956;28;20031;-77
2023/12/07 02:22:29;;;;;;;65.57;30.90;;;2.10;99.90;;;;;;4998782;28;20511;-76
2023/12/07 02:25:08;;;;;;;57.70;27.63;;;2.20;99.90;;;;;;4986062;28;20057;-76
2023/12/07 02:27:45;;;;;;;48.00;23.67;;;2.10;99.90;;;;;;4993273;28;20034;-76
2023/12/07 02:30:11;;;;;;;57.42;26.92;;;2.10;99.90;;;;;;4995742;28;20388;-76
2023/12/07 02:32:38;;;;;;;58.80;26.08;;;2.20;99.90;;;;;;4974236;28;20037;-76
2023/12/07 02:35:04;;;;;;;49.95;25.23;;;2.20;99.90;;;;;;4995136;28;20042;-84
2023/12/07 02:37:44;;;;;;;60.53;30.05;;;2.30;99.90;;;;;;4984370;28;20096;-84
2023/12/07 02:40:10;;;;;;;55.85;27.63;;;2.40;99.90;;;;;;4989381;28;20037;-85
2023/12/07 02:42:37;;;;;;;47.42;23.27;;;2.40;99.90;;;;;;4964532;28;20073;-84
2023/12/07 02:45:03;;;;;;;50.95;25.25;;;2.30;99.90;;;;;;4987446;28;20045;-83
2023/12/07 02:47:29;;;;;;;51.05;22.23;;;2.30;99.90;;;;;;4974742;28;20027;-82
2023/12/07 02:49:54;;;;;;;54.38;26.85;;;2.30;99.90;;;;;;4993654;28;20366;-84
2023/12/07 02:52:20;;;;;;;69.03;29.13;;;2.40;99.90;;;;;;5001209;28;20520;-82
2023/12/07 02:54:45;;;;;;;80.53;28.08;;;2.30;99.90;;;;;;4989837;28;20342;-81
2023/12/07 02:57:11;;;;;;;114.80;34.70;;;2.30;99.90;;;;;;4992868;28;20042;-82
2023/12/07 02:59:36;;;;;;;48.38;22.55;;;2.20;99.90;;;;;;4968453;28;20037;-85
2023/12/07 03:02:02;;;;;;;64.70;25.60;;;2.30;99.90;;;;;;4992701;28;20113;-86
2023/12/07 03:04:28;;;;;;;71.70;24.52;;;2.20;99.90;;;;;;4985240;28;20490;-86
2023/12/07 03:06:53;;;;;;;157.65;29.33;;;2.10;99.90;;;;;;4998407;28;20029;-87
2023/12/07 03:09:19;;;;;;;59.47;24.35;;;2.20;99.90;;;;;;4975448;28;20040;-87
2023/12/07 03:11:44;;;;;;;66.30;27.17;;;2.20;99.90;;;;;;4991670;28;20034;-83
2023/12/07 03:14:10;;;;;;;77.18;26.80;;;2.10;99.90;;;;;;4995179;28;20130;-83
2023/12/07 03:16:36;;;;;;;44.75;21.25;;;2.20;99.90;;;;;;4987302;28;20092;-81
2023/12/07 03:19:02;;;;;;;84.82;24.35;;;2.30;99.90;;;;;;4987855;28;20141;-86
2023/12/07 03:21:27;;;;;;;63.67;27.33;;;2.20;99.90;;;;;;4975814;28;20538;-86
2023/12/07 03:23:53;;;;;;;63.85;23.88;;;2.20;99.90;;;;;;4988072;28;20030;-86
2023/12/07 03:26:19;;;;;;;45.20;20.35;;;2.20;99.90;;;;;;4980283;28;20022;-85
2023/12/07 03:28:44;;;;;;;53.40;23.67;;;2.30;99.90;;;;;;4996424;28;20391;-85
2023/12/07 03:31:10;;;;;;;46.78;21.27;;;2.20;99.90;;;;;;4991225;28;20014;-85
2023/12/07 03:33:38;;;;;;;61.15;23.67;;;2.20;99.90;;;;;;4994320;28;20033;-86
2023/12/07 03:36:04;;;;;;;47.38;20.48;;;2.20;99.90;;;;;;4989568;28;20125;-85
2023/12/07 03:38:30;;;;;;;43.05;21.00;;;2.20;99.90;;;;;;4996323;28;20517;-85
2023/12/07 03:40:55;;;;;;;68.22;24.20;;;2.20;99.90;;;;;;4987353;28;20042;-85
2023/12/07 03:43:21;;;;;;;89.88;24.70;;;2.30;99.90;;;;;;5001288;28;20030;-86
2023/12/07 03:45:46;;;;;;;73.55;26.05;;;2.30;99.90;;;;;;4983275;28;20506;-76
2023/12/07 03:48:12;;;;;;;63.60;24.70;;;2.20;99.90;;;;;;4978442;28;20365;-75
2023/12/07 03:50:38;;;;;;;48.03;20.90;;;2.20;99.90;;;;;;4986557;28;20495;-76
2023/12/07 03:53:03;;;;;;;39.40;17.48;;;2.20;99.90;;;;;;4996889;28;20054;-76
2023/12/07 03:55:29;;;;;;;49.63;22.98;;;2.30;99.90;;;;;;4995210;28;20532;-76
2023/12/07 03:57:54;;;;;;;77.32;26.38;;;2.40;99.90;;;;;;4985534;28;20057;-75
2023/12/07 04:00:21;;;;;;;51.40;22.70;;;2.20;99.90;;;;;;4982834;28;20081;-76
2023/12/07 04:02:46;;;;;;;60.42;23.83;;;2.30;99.90;;;;;;4978790;28;20030;-76
2023/12/07 04:05:12;;;;;;;53.58;23.05;;;2.20;99.90;;;;;;4980344;28;20536;-76
2023/12/07 04:07:38;;;;;;;66.07;27.17;;;2.20;99.90;;;;;;4995899;28;20040;-76
2023/12/07 04:10:06;;;;;;;66.05;25.55;;;2.20;99.90;;;;;;4994542;28;20029;-76
2023/12/07 04:12:31;;;;;;;68.05;25.10;;;2.30;99.90;;;;;;4998174;28;20390;-76
2023/12/07 04:14:57;;;;;;;66.57;26.95;;;2.20;99.90;;;;;;4997840;28;20042;-76
2023/12/07 04:17:22;;;;;;;72.32;26.92;;;2.20;99.90;;;;;;4996045;28;20431;-76
2023/12/07 04:19:48;;;;;;;65.68;26.23;;;2.20;99.90;;;;;;4990886;28;20327;-76
2023/12/07 04:22:14;;;;;;;70.03;29.70;;;2.20;99.90;;;;;;4994017;28;20391;-76
2023/12/07 04:24:39;;;;;;;44.15;17.92;;;2.20;99.90;;;;;;4969721;28;20038;-78
2023/12/07 04:27:05;;;;;;;43.13;19.63;;;2.20;99.90;;;;;;4976379;28;20333;-76
2023/12/07 04:29:30;;;;;;;51.03;21.17;;;2.40;99.90;;;;;;4960080;28;20259;-77
2023/12/07 04:31:56;;;;;;;61.13;25.42;;;2.40;99.90;;;;;;4989172;28;20057;-75
2023/12/07 04:34:21;;;;;;;63.42;25.70;;;2.40;99.90;;;;;;4981634;28;20039;-76
2023/12/07 04:36:47;;;;;;;64.32;27.60;;;2.30;99.90;;;;;;4974921;28;20508;-76
2023/12/07 04:39:12;;;;;;;40.80;18.08;;;2.30;99.90;;;;;;4975969;28;20503;-77
2023/12/07 04:41:38;;;;;;;52.58;22.17;;;2.30;99.90;;;;;;4975392;28;20343;-76
2023/12/07 04:44:04;;;;;;;40.90;17.80;;;2.30;99.90;;;;;;4991015;28;20444;-76
2023/12/07 04:46:29;;;;;;;44.20;21.20;;;2.40;99.90;;;;;;4981542;28;20053;-76
2023/12/07 04:48:55;;;;;;;47.50;20.42;;;2.40;99.90;;;;;;4992978;28;20161;-76
2023/12/07 04:51:20;;;;;;;54.72;23.77;;;2.50;99.90;;;;;;4990464;28;20114;-76
2023/12/07 04:53:47;;;;;;;49.90;22.98;;;2.40;99.90;;;;;;4991847;28;20058;-76
2023/12/07 04:56:12;;;;;;;59.30;25.20;;;2.40;99.90;;;;;;4995707;28;20035;-76
2023/12/07 04:58:38;;;;;;;37.20;16.63;;;2.30;99.90;;;;;;4999657;28;20412;-75
2023/12/07 05:01:04;;;;;;;59.63;23.83;;;2.40;99.90;;;;;;4983637;28;20038;-76
2023/12/07 05:03:29;;;;;;;52.10;24.55;;;2.30;99.90;;;;;;4981848;28;20092;-76
2023/12/07 05:05:55;;;;;;;49.10;20.33;;;2.40;99.90;;;;;;4999085;28;20030;-77
2023/12/07 05:08:21;;;;;;;46.90;22.08;;;2.40;99.90;;;;;;4999741;28;20674;-77
2023/12/07 05:10:47;;;;;;;50.70;22.02;;;2.50;99.90;;;;;;5002579;28;20525;-77
2023/12/07 05:13:13;;;;;;;60.17;25.13;;;2.50;99.90;;;;;;4983705;28;20619;-76
2023/12/07 05:15:38;;;;;;;53.22;25.08;;;2.50;99.90;;;;;;4983812;28;20026;-77
2023/12/07 05:18:04;;;;;;;39.63;17.33;;;2.50;99.90;;;;;;4979303;28;20542;-84
2023/12/07 05:20:30;;;;;;;42.03;18.90;;;2.50;99.90;;;;;;5006704;28;20045;-84
2023/12/07 05:22:56;;;;;;;35.58;16.02;;;2.60;99.90;;;;;;5005835;28;20389;-84
2023/12/07 05:25:21;;;;;;;36.42;17.60;;;2.60;99.90;;;;;;5004685;28;20136;-84
2023/12/07 05:27:47;;;;;;;38.58;18.23;;;2.60;99.90;;;;;;5003685;28;20045;-83
2023/12/07 05:30:14;;;;;;;35.50;16.63;;;2.60;99.90;;;;;;5004256;28;20040;-83
2023/12/07 05:32:39;;;;;;;48.75;21.35;;;2.60;99.90;;;;;;5021485;28;20049;-83
2023/12/07 05:35:05;;;;;;;49.17;20.05;;;2.70;99.90;;;;;;5007804;28;20730;-84
2023/12/07 05:37:31;;;;;;;55.78;26.02;;;2.70;99.90;;;;;;5003724;28;20108;-84
2023/12/07 05:39:57;;;;;;;42.22;17.98;;;2.60;99.90;;;;;;5000476;28;20030;-84
2023/12/07 05:42:22;;;;;;;55.65;24.60;;;2.60;99.90;;;;;;4995431;28;20026;-80
2023/12/07 05:44:48;;;;;;;48.72;21.98;;;2.60;99.90;;;;;;4998260;28;20424;-79
2023/12/07 05:47:14;;;;;;;45.22;22.58;;;2.60;99.90;;;;;;5000702;28;20594;-81
2023/12/07 05:49:39;;;;;;;46.33;20.35;;;2.70;99.90;;;;;;4970437;28;20879;-79
2023/12/07 05:52:05;;;;;;;53.95;24.15;;;2.60;99.90;;;;;;4992016;28;20042;-83
2023/12/07 05:54:30;;;;;;;57.47;24.40;;;2.60;99.90;;;;;;4984475;28;20048;-82
2023/12/07 05:56:56;;;;;;;49.67;22.30;;;2.60;99.90;;;;;;5000282;28;20105;-83
2023/12/07 05:59:22;;;;;;;55.72;26.58;;;2.60;99.90;;;;;;4987784;28;20042;-83
2023/12/07 06:01:47;;;;;;;44.50;21.70;;;2.50;99.90;;;;;;5000499;28;20036;-82
2023/12/07 06:04:13;;;;;;;53.38;23.48;;;2.60;99.90;;;;;;4985061;28;20042;-77
2023/12/07 06:06:39;;;;;;;63.53;28.15;;;2.50;99.90;;;;;;4981632;28;20126;-82
2023/12/07 06:09:07;;;;;;;46.05;21.80;;;2.50;99.90;;;;;;4997181;28;20587;-81
2023/12/07 06:11:34;;;;;;;64.05;27.95;;;2.40;99.90;;;;;;5002553;28;20034;-81
2023/12/07 06:14:00;;;;;;;52.45;22.70;;;2.40;99.90;;;;;;4986164;28;20405;-81
2023/12/07 06:16:26;;;;;;;55.75;26.45;;;2.40;99.90;;;;;;4999908;28;20029;-81
2023/12/07 06:18:51;;;;;;;61.15;27.90;;;2.30;99.90;;;;;;5003214;28;20026;-79
2023/12/07 06:21:17;;;;;;;55.15;24.38;;;2.20;99.90;;;;;;4996128;28;20038;-80
2023/12/07 06:23:42;;;;;;;56.90;26.63;;;2.20;99.90;;;;;;4998272;28;20064;-78
2023/12/07 06:26:08;;;;;;;44.92;20.25;;;2.20;99.90;;;;;;5000064;28;20056;-79
2023/12/07 06:28:34;;;;;;;39.05;19.40;;;2.10;99.90;;;;;;4999021;28;20405;-80
2023/12/07 06:31:08;;;;;;;39.13;18.75;;;2.10;99.90;;;;;;4979582;28;20049;-80
2023/12/07 06:33:34;;;;;;;56.95;23.10;;;2.10;99.90;;;;;;4995688;28;20746;-80
2023/12/07 06:36:01;;;;;;;59.20;26.50;;;1.90;99.90;;;;;;4996857;28;20054;-80
2023/12/07 06:38:26;;;;;;;59.55;25.98;;;1.90;99.90;;;;;;4969398;28;20109;-80
2023/12/07 06:40:52;;;;;;;48.30;24.33;;;1.80;99.90;;;;;;4998309;28;20121;-79
2023/12/07 06:43:18;;;;;;;60.00;27.55;;;1.70;99.90;;;;;;4998589;28;20041;-79
2023/12/07 06:45:43;;;;;;;57.70;25.80;;;1.60;99.90;;;;;;4986505;28;20092;-79
2023/12/07 06:48:09;;;;;;;58.25;26.92;;;1.60;99.90;;;;;;4996473;28;20042;-80
2023/12/07 06:50:34;;;;;;;54.00;24.30;;;1.60;99.90;;;;;;5001087;28;20080;-80
2023/12/07 06:53:00;;;;;;;65.38;27.92;;;1.50;99.90;;;;;;4996620;28;21419;-78
2023/12/07 06:55:25;;;;;;;61.92;26.05;;;1.40;99.90;;;;;;5011491;28;20461;-80
2023/12/07 06:57:51;;;;;;;61.63;25.95;;;1.30;99.90;;;;;;4988255;28;20308;-79
2023/12/07 07:00:18;;;;;;;59.33;26.23;;;1.20;99.90;;;;;;4998605;28;20374;-80
2023/12/07 07:02:44;;;;;;;66.50;27.73;;;1.20;99.90;;;;;;5012110;28;20026;-78
2023/12/07 07:05:11;;;;;;;59.75;25.92;;;1.10;99.90;;;;;;4999561;28;20060;-78
2023/12/07 07:07:37;;;;;;;54.35;24.67;;;1.00;99.90;;;;;;4998408;28;20043;-80
2023/12/07 07:10:04;;;;;;;60.78;25.42;;;1.00;99.90;;;;;;4998211;28;20767;-79
2023/12/07 07:12:30;;;;;;;60.28;26.73;;;0.90;99.90;;;;;;4999483;28;20061;-79
2023/12/07 07:14:55;;;;;;;58.42;25.55;;;0.90;99.90;;;;;;4998286;28;20042;-80
2023/12/07 07:17:21;;;;;;;60.28;25.13;;;0.80;99.90;;;;;;5005830;28;20027;-80
2023/12/07 07:19:46;;;;;;;64.38;26.42;;;0.90;99.90;;;;;;4973455;28;20047;-80
2023/12/07 07:22:12;;;;;;;62.88;27.65;;;0.90;99.90;;;;;;4979562;28;20129;-80
2023/12/07 07:24:38;;;;;;;60.60;28.10;;;0.80;99.90;;;;;;4976950;28;20089;-80
2023/12/07 07:27:03;;;;;;;61.97;25.95;;;0.70;99.90;;;;;;4974520;28;20382;-76
2023/12/07 07:29:29;;;;;;;65.05;29.02;;;0.70;99.90;;;;;;5019446;28;20026;-78
2023/12/07 07:31:55;;;;;;;64.57;26.65;;;0.70;99.90;;;;;;4983395;28;20037;-79
2023/12/07 07:34:21;;;;;;;59.42;27.02;;;0.60;99.90;;;;;;4983389;28;20044;-78
2023/12/07 07:36:47;;;;;;;57.47;24.90;;;0.50;99.90;;;;;;4997551;28;20265;-79
2023/12/07 07:39:13;;;;;;;62.95;27.15;;;0.60;99.90;;;;;;4999046;28;20519;-77
2023/12/07 07:41:39;;;;;;;48.63;20.73;;;0.50;99.90;;;;;;4998754;28;20038;-78
2023/12/07 07:44:05;;;;;;;59.20;24.83;;;0.60;99.90;;;;;;4986103;28;20038;-79
2023/12/07 07:46:30;;;;;;;48.75;23.52;;;0.70;99.90;;;;;;4966413;28;20236;-77
2023/12/07 07:48:56;;;;;;;44.08;20.23;;;0.80;99.90;;;;;;4978962;28;20632;-79
2023/12/07 07:51:21;;;;;;;52.47;24.48;;;0.80;99.90;;;;;;4995977;28;20037;-79
2023/12/07 07:53:47;;;;;;;45.60;21.30;;;0.80;99.90;;;;;;4999593;28;20041;-78
2023/12/07 07:56:12;;;;;;;48.42;23.67;;;0.90;99.90;;;;;;4983513;28;20041;-78
2023/12/07 07:58:38;;;;;;;45.45;20.38;;;0.90;99.90;;;;;;5001265;28;20273;-77
2023/12/07 08:01:04;;;;;;;42.83;21.08;;;0.90;99.90;;;;;;5001009;28;20030;-79
2023/12/07 08:03:29;;;;;;;47.13;21.77;;;0.80;99.90;;;;;;5002918;28;20034;-78
2023/12/07 08:05:55;;;;;;;40.22;20.77;;;0.90;99.90;;;;;;5006557;28;20037;-79
2023/12/07 08:08:21;;;;;;;35.15;17.88;;;0.90;99.90;;;;;;5001795;28;20087;-78
2023/12/07 08:10:46;;;;;;;45.38;19.27;;;0.90;99.90;;;;;;4981907;28;20029;-78
2023/12/07 08:13:12;;;;;;;39.47;18.23;;;1.00;99.90;;;;;;4983791;28;20100;-79
2023/12/07 08:15:37;;;;;;;29.38;14.35;;;1.20;99.90;;;;;;4982207;28;20290;-77
2023/12/07 08:18:03;;;;;;;49.58;21.60;;;1.30;99.90;;;;;;4973420;28;20517;-79
2023/12/07 08:20:29;;;;;;;34.90;16.42;;;1.40;99.90;;;;;;5013405;28;20697;-79
2023/12/07 08:22:54;;;;;;;37.95;17.95;;;1.50;99.90;;;;;;5004199;28;20103;-78
2023/12/07 08:25:21;;;;;;;48.90;22.08;;;1.50;99.90;;;;;;5001842;28;20655;-75
2023/12/07 08:27:47;;;;;;;40.33;18.85;;;1.40;99.90;;;;;;4974034;28;20239;-76
2023/12/07 08:30:12;;;;;;;38.30;19.00;;;1.60;99.90;;;;;;4984320;28;20058;-76
2023/12/07 08:32:38;;;;;;;43.13;21.63;;;1.60;99.90;;;;;;4978693;28;20101;-75
2023/12/07 08:35:05;;;;;;;40.65;18.35;;;1.60;99.90;;;;;;4999367;28;20551;-75
2023/12/07 08:37:32;;;;;;;40.90;18.48;;;1.70;99.90;;;;;;5002092;28;20050;-76
2023/12/07 08:39:59;;;;;;;40.72;19.40;;;1.90;99.90;;;;;;4984776;28;20034;-75
2023/12/07 08:42:26;;;;;;;38.92;20.05;;;1.90;99.90;;;;;;4987694;28;20137;-75
2023/12/07 08:44:52;;;;;;;38.97;18.95;;;1.90;99.90;;;;;;5000190;28;20031;-76
2023/12/07 08:47:17;;;;;;;38.72;19.25;;;2.00;99.90;;;;;;5000514;28;20040;-76
2023/12/07 08:49:43;;;;;;;40.30;20.13;;;2.10;99.90;;;;;;4998642;28;20612;-76
2023/12/07 08:52:08;;;;;;;33.70;17.52;;;2.20;99.90;;;;;;4999378;28;20800;-76
2023/12/07 08:54:36;;;;;;;35.25;18.20;;;2.30;99.90;;;;;;4996276;28;20084;-74
2023/12/07 08:57:01;;;;;;;38.38;18.77;;;2.40;99.90;;;;;;5016333;28;20030;-77
2023/12/07 08:59:27;;;;;;;35.33;17.38;;;2.40;99.90;;;;;;4999251;28;20056;-78
2023/12/07 09:01:55;;;;;;;41.92;18.88;;;2.40;99.90;;;;;;4995626;28;20058;-76
2023/12/07 09:04:20;;;;;;;35.17;17.63;;;2.50;99.90;;;;;;4999558;28;20038;-77
2023/12/07 09:06:46;;;;;;;35.78;18.45;;;2.70;99.90;;;;;;5001599;28;20084;-76
2023/12/07 09:09:12;;;;;;;37.05;19.95;;;2.80;99.90;;;;;;5000190;28;20033;-76
2023/12/07 09:11:37;;;;;;;34.78;18.52;;;2.80;99.90;;;;;;4998765;28;20413;-76
2023/12/07 09:14:03;;;;;;;39.22;19.10;;;2.90;99.90;;;;;;4992056;28;20520;-76
2023/12/07 09:16:28;;;;;;;42.17;21.40;;;2.80;99.90;;;;;;5002822;28;20038;-77
2023/12/07 09:18:54;;;;;;;33.38;17.70;;;3.00;99.90;;;;;;5002170;28;20052;-76
2023/12/07 09:21:19;;;;;;;31.85;17.35;;;3.20;99.90;;;;;;5002033;28;20026;-76
2023/12/07 09:23:45;;;;;;;39.08;20.30;;;3.50;99.90;;;;;;5015219;28;20408;-77
2023/12/07 09:26:11;;;;;;;35.15;18.17;;;3.50;99.90;;;;;;5000942;28;20029;-77
2023/12/07 09:28:36;;;;;;;39.15;19.38;;;3.60;99.90;;;;;;5000193;28;20433;-76
2023/12/07 09:31:02;;;;;;;32.53;16.70;;;3.70;99.90;;;;;;4993763;28;20034;-76
2023/12/07 09:33:27;;;;;;;38.22;18.25;;;4.00;99.90;;;;;;4995876;28;20038;-76
2023/12/07 09:35:53;;;;;;;34.45;18.85;;;4.00;99.90;;;;;;4998322;28;20034;-78
2023/12/07 09:38:19;;;;;;;37.42;18.63;;;4.10;99.90;;;;;;5006791;28;20034;-79
2023/12/07 09:40:46;;;;;;;30.92;16.30;;;4.10;99.90;;;;;;5006391;28;20584;-78
2023/12/07 09:43:13;;;;;;;34.58;18.80;;;4.10;99.90;;;;;;5003026;28;20092;-79
2023/12/07 09:45:38;;;;;;;38.85;20.88;;;4.30;99.90;;;;;;5021004;28;20461;-79
2023/12/07 09:48:04;;;;;;;33.72;18.42;;;4.40;99.90;;;;;;5006629;28;20049;-79
2023/12/07 09:50:30;;;;;;;37.00;18.55;;;4.70;99.90;;;;;;4999486;28;20034;-79
2023/12/07 09:52:57;;;;;;;29.23;15.98;;;4.70;99.90;;;;;;4986631;28;20031;-79
2023/12/07 09:55:22;;;;;;;28.27;16.45;;;4.80;99.90;;;;;;5018317;28;20088;-79
2023/12/07 09:57:48;;;;;;;28.50;16.02;;;5.00;99.90;;;;;;4982209;28;20034;-79
2023/12/07 10:00:14;;;;;;;29.83;15.95;;;4.90;99.90;;;;;;5020198;28;20088;-77
2023/12/07 10:02:42;;;;;;;29.48;16.15;;;5.20;99.90;;;;;;5004176;28;20041;-80
2023/12/07 10:05:13;;;;;;;28.45;15.43;;;5.30;99.90;;;;;;5002551;28;20048;-79
2023/12/07 10:07:48;;;;;;;30.02;16.35;;;5.20;99.90;;;;;;5000432;28;20030;-79
2023/12/07 10:10:13;;;;;;;30.40;16.00;;;5.30;99.90;;;;;;5018957;28;20607;-80
2023/12/07 10:12:46;;;;;;;25.98;13.30;;;5.30;99.90;;;;;;5002329;28;20034;-79
2023/12/07 10:15:13;;;;;;;32.17;16.45;;;5.40;99.90;;;;;;5018986;28;20129;-79
2023/12/07 10:17:59;;;;;;;31.42;16.55;;;5.40;99.90;;;;;;4977645;28;20027;-80
2023/12/07 10:20:25;;;;;;;26.40;15.15;;;5.50;99.90;;;;;;5013884;28;20033;-79
2023/12/07 10:23:07;;;;;;;25.33;14.75;;;5.50;99.90;;;;;;5005987;28;20033;-79
2023/12/07 10:25:36;;;;;;;26.23;14.88;;;5.60;99.90;;;;;;4988848;28;20485;-78
2023/12/07 10:28:06;;;;;;;21.85;13.25;;;5.80;99.90;;;;;;4976040;28;20042;-82
2023/12/07 10:30:32;;;;;;;22.38;13.40;;;6.00;99.90;;;;;;5004180;28;20045;-80
2023/12/07 10:32:57;;;;;;;25.02;14.20;;;5.80;99.90;;;;;;4999215;28;20038;-80
2023/12/07 10:35:23;;;;;;;23.80;13.02;;;5.90;99.90;;;;;;5001189;28;20136;-79
2023/12/07 10:37:49;;;;;;;22.75;12.98;;;6.10;99.90;;;;;;4987472;28;20061;-79
2023/12/07 10:40:14;;;;;;;22.20;12.85;;;6.40;99.90;;;;;;4983518;28;20034;-79
2023/12/07 10:42:41;;;;;;;26.75;11.98;;;6.30;99.90;;;;;;5007005;28;20066;-78
2023/12/07 10:45:07;;;;;;;20.73;13.07;;;6.40;99.90;;;;;;5003459;28;20044;-76
2023/12/07 10:47:37;;;;;;;25.63;14.18;;;6.50;99.90;;;;;;4985171;28;20030;-77
2023/12/07 10:50:05;;;;;;;21.23;13.38;;;6.60;99.90;;;;;;5000629;28;20041;-77
2023/12/07 10:52:31;;;;;;;22.27;12.55;;;6.70;99.90;;;;;;4971353;28;20137;-76
2023/12/07 10:55:01;;;;;;;25.50;12.15;;;6.50;99.90;;;;;;4963055;28;20041;-77
2023/12/07 10:57:27;;;;;;;22.50;12.02;;;6.60;99.90;;;;;;4980166;28;20034;-77
2023/12/07 10:59:53;;;;;;;23.10;12.68;;;7.00;99.90;;;;;;4990403;28;20041;-77
2023/12/07 11:02:18;;;;;;;18.98;11.85;;;7.10;99.90;;;;;;4984658;28;20030;-77
2023/12/07 11:04:44;;;;;;;18.52;10.80;;;7.00;99.90;;;;;;5002113;28;20393;-77
2023/12/07 11:07:12;;;;;;;21.50;13.05;;;7.40;99.90;;;;;;4997989;28;20049;-77
2023/12/07 11:09:41;;;;;;;16.35;9.93;;;7.40;99.90;;;;;;4996099;28;20074;-77
2023/12/07 11:12:17;;;;;;;19.92;12.27;;;7.30;99.90;;;;;;4997098;28;20836;-76
2023/12/07 11:14:42;;;;;;;22.13;11.50;;;7.00;99.90;;;;;;4994797;28;20064;-76
2023/12/07 11:17:08;;;;;;;15.52;9.43;;;7.30;99.90;;;;;;4997809;28;20034;-77
2023/12/07 11:19:36;;;;;;;18.13;10.88;;;7.30;99.90;;;;;;4996209;28;20033;-76
2023/12/07 11:22:03;;;;;;;18.33;10.32;;;7.60;99.90;;;;;;4998096;28;20525;-77
2023/12/07 11:24:29;;;;;;;18.48;11.02;;;7.60;99.90;;;;;;4954812;28;20101;-77
2023/12/07 11:26:57;;;;;;;15.88;10.43;;;7.60;99.90;;;;;;4998547;28;20650;-77
2023/12/07 11:29:26;;;;;;;17.38;11.43;;;7.80;99.90;;;;;;4981466;28;20544;-77
2023/12/07 11:31:52;;;;;;;22.25;11.15;;;7.90;99.90;;;;;;4997310;28;20036;-76
2023/12/07 11:34:48;;;;;;;14.48;9.57;;;8.10;99.90;;;;;;4974870;28;20554;-76
2023/12/07 11:37:17;;;;;;;17.27;9.00;;;8.30;99.90;;;;;;4976105;28;20537;-77
2023/12/07 11:39:45;;;;;;;12.85;7.68;;;8.30;99.90;;;;;;4980715;28;20089;-76
2023/12/07 11:42:11;;;;;;;14.93;9.38;;;8.40;99.90;;;;;;4959060;28;20037;-75
2023/12/07 11:44:40;;;;;;;16.10;9.38;;;8.60;99.90;;;;;;4995302;28;20026;-77
2023/12/07 11:47:06;;;;;;;14.88;10.07;;;8.50;99.90;;;;;;4980990;28;20058;-77
2023/12/07 11:49:32;;;;;;;14.38;9.70;;;8.50;99.90;;;;;;4980397;28;20053;-76
2023/12/07 11:51:58;;;;;;;20.38;10.10;;;8.40;99.90;;;;;;4996616;28;20049;-77
2023/12/07 11:54:27;;;;;;;15.43;10.27;;;8.50;99.90;;;;;;4981210;28;20038;-80
2023/12/07 11:56:56;;;;;;;14.32;9.85;;;8.60;99.90;;;;;;4983039;28;20033;-79
2023/12/07 11:59:22;;;;;;;15.65;9.77;;;8.60;99.90;;;;;;4969981;28;20099;-78
2023/12/07 12:01:49;;;;;;;15.07;10.80;;;8.90;99.90;;;;;;4998010;28;20038;-78
2023/12/07 12:04:15;;;;;;;13.20;8.68;;;8.70;99.90;;;;;;4998557;28;20030;-79
2023/12/07 12:06:43;;;;;;;14.18;8.48;;;8.60;99.90;;;;;;5002430;28;20030;-79
2023/12/07 12:09:10;;;;;;;20.95;11.23;;;8.40;99.90;;;;;;4983582;28;20037;-79
2023/12/07 12:11:35;;;;;;;17.08;11.07;;;8.20;99.90;;;;;;5003561;28;20046;-79
2023/12/07 12:14:01;;;;;;;16.08;8.45;;;8.30;99.90;;;;;;4990358;28;20058;-80
2023/12/07 12:16:27;;;;;;;15.15;10.80;;;8.40;99.90;;;;;;4977675;28;20037;-78
2023/12/07 12:18:52;;;;;;;15.90;9.82;;;8.20;99.90;;;;;;5000848;28;20018;-79
2023/12/07 12:21:18;;;;;;;15.90;9.27;;;8.10;99.90;;;;;;4992357;28;20490;-79
2023/12/07 12:23:44;;;;;;;12.32;8.40;;;8.40;99.90;;;;;;4656648;28;9999888;-78
2023/12/07 12:26:10;;;;;;;13.88;9.30;;;8.80;99.90;;;;;;4987297;28;20045;-78
2023/12/07 12:28:41;;;;;;;18.08;10.85;;;8.40;99.90;;;;;;4966781;28;20041;-78
2023/12/07 12:31:07;;;;;;;17.92;9.32;;;8.10;99.90;;;;;;4995154;28;20540;-79
2023/12/07 12:33:36;;;;;;;16.00;10.48;;;8.40;99.90;;;;;;4981561;28;20031;-78